sensor_id;sensor_type;location;lat;lon;timestamp;P1;durP1;ratioP1;P2;durP2;ratioP2
12896;SDS011;6516;35.028;32.372;2022-12-29T00:00:06;6.23;;;3.00;;
12896;SDS011;6516;35.028;32.372;2022-12-29T00:02:38;6.03;;;3.30;;
12896;SDS011;6516;35.028;32.372;2022-12-29T00:05:08;7.38;;;3.10;;
12896;SDS011;6516;35.028;32.372;2022-12-29T00:07:36;5.93;;;3.22;;
12896;SDS011;6516;35.028;32.372;2022-12-29T00:10:04;6.43;;;3.30;;
12896;SDS011;6516;35.028;32.372;2022-12-29T00:12:33;6.07;;;3.20;;
12896;SDS011;6516;35.028;32.372;2022-12-29T00:15:19;6.35;;;3.40;;
12896;SDS011;6516;35.028;32.372;2022-12-29T00:18:07;5.93;;;3.30;;
12896;SDS011;6516;35.028;32.372;2022-12-29T00:20:35;7.38;;;3.33;;
12896;SDS011;6516;35.028;32.372;2022-12-29T00:23:20;6.22;;;2.95;;
12896;SDS011;6516;35.028;32.372;2022-12-29T00:26:08;6.47;;;3.30;;
12896;SDS011;6516;35.028;32.372;2022-12-29T00:28:57;6.60;;;3.05;;
12896;SDS011;6516;35.028;32.372;2022-12-29T00:31:42;6.18;;;3.58;;
12896;SDS011;6516;35.028;32.372;2022-12-29T00:34:29;6.80;;;3.40;;
12896;SDS011;6516;35.028;32.372;2022-12-29T00:37:13;7.03;;;3.10;;
12896;SDS011;6516;35.028;32.372;2022-12-29T00:39:41;6.60;;;3.37;;
12896;SDS011;6516;35.028;32.372;2022-12-29T00:42:26;7.20;;;3.28;;
12896;SDS011;6516;35.028;32.372;2022-12-29T00:45:19;7.00;;;3.38;;
12896;SDS011;6516;35.028;32.372;2022-12-29T00:47:47;5.80;;;3.20;;
12896;SDS011;6516;35.028;32.372;2022-12-29T00:50:16;6.93;;;3.53;;
12896;SDS011;6516;35.028;32.372;2022-12-29T00:52:44;7.67;;;3.40;;
12896;SDS011;6516;35.028;32.372;2022-12-29T00:55:12;5.75;;;3.42;;
12896;SDS011;6516;35.028;32.372;2022-12-29T00:57:40;6.82;;;3.50;;
12896;SDS011;6516;35.028;32.372;2022-12-29T01:00:08;5.90;;;3.28;;
12896;SDS011;6516;35.028;32.372;2022-12-29T01:02:37;7.03;;;3.60;;
12896;SDS011;6516;35.028;32.372;2022-12-29T01:05:05;6.50;;;3.50;;
12896;SDS011;6516;35.028;32.372;2022-12-29T01:07:35;6.30;;;3.70;;
12896;SDS011;6516;35.028;32.372;2022-12-29T01:10:03;6.82;;;3.45;;
12896;SDS011;6516;35.028;32.372;2022-12-29T01:12:36;5.97;;;3.72;;
12896;SDS011;6516;35.028;32.372;2022-12-29T01:15:07;6.40;;;3.90;;
12896;SDS011;6516;35.028;32.372;2022-12-29T01:17:37;5.50;;;3.30;;
12896;SDS011;6516;35.028;32.372;2022-12-29T01:20:05;7.60;;;3.33;;
12896;SDS011;6516;35.028;32.372;2022-12-29T01:22:36;6.00;;;3.50;;
12896;SDS011;6516;35.028;32.372;2022-12-29T01:25:04;7.35;;;3.50;;
12896;SDS011;6516;35.028;32.372;2022-12-29T01:27:33;5.97;;;3.40;;
12896;SDS011;6516;35.028;32.372;2022-12-29T01:30:00;6.50;;;3.33;;
12896;SDS011;6516;35.028;32.372;2022-12-29T01:32:28;5.50;;;3.40;;
12896;SDS011;6516;35.028;32.372;2022-12-29T01:34:56;6.93;;;3.50;;
12896;SDS011;6516;35.028;32.372;2022-12-29T01:37:23;6.13;;;3.03;;
12896;SDS011;6516;35.028;32.372;2022-12-29T01:39:53;6.60;;;3.50;;
12896;SDS011;6516;35.028;32.372;2022-12-29T01:42:22;5.90;;;3.43;;
12896;SDS011;6516;35.028;32.372;2022-12-29T01:44:53;6.85;;;3.53;;
12896;SDS011;6516;35.028;32.372;2022-12-29T01:47:25;5.75;;;3.78;;
12896;SDS011;6516;35.028;32.372;2022-12-29T01:50:00;6.80;;;3.78;;
12896;SDS011;6516;35.028;32.372;2022-12-29T01:52:33;6.45;;;3.92;;
12896;SDS011;6516;35.028;32.372;2022-12-29T01:55:07;7.10;;;3.40;;
12896;SDS011;6516;35.028;32.372;2022-12-29T01:57:36;6.80;;;3.60;;
12896;SDS011;6516;35.028;32.372;2022-12-29T02:00:08;6.85;;;3.58;;
12896;SDS011;6516;35.028;32.372;2022-12-29T02:02:39;7.68;;;3.42;;
12896;SDS011;6516;35.028;32.372;2022-12-29T02:05:10;5.50;;;3.17;;
12896;SDS011;6516;35.028;32.372;2022-12-29T02:07:42;5.70;;;3.00;;
12896;SDS011;6516;35.028;32.372;2022-12-29T02:10:13;6.88;;;3.25;;
12896;SDS011;6516;35.028;32.372;2022-12-29T02:12:41;6.22;;;3.15;;
12896;SDS011;6516;35.028;32.372;2022-12-29T02:15:09;7.47;;;3.42;;
12896;SDS011;6516;35.028;32.372;2022-12-29T02:17:43;5.57;;;3.05;;
12896;SDS011;6516;35.028;32.372;2022-12-29T02:20:33;6.70;;;3.20;;
12896;SDS011;6516;35.028;32.372;2022-12-29T02:23:36;5.78;;;3.28;;
12896;SDS011;6516;35.028;32.372;2022-12-29T02:30:02;6.38;;;3.53;;
12896;SDS011;6516;35.028;32.372;2022-12-29T02:32:42;5.35;;;3.20;;
12896;SDS011;6516;35.028;32.372;2022-12-29T02:35:22;5.50;;;2.70;;
12896;SDS011;6516;35.028;32.372;2022-12-29T02:37:59;5.70;;;3.28;;
12896;SDS011;6516;35.028;32.372;2022-12-29T02:40:39;6.00;;;3.20;;
12896;SDS011;6516;35.028;32.372;2022-12-29T02:43:14;7.57;;;3.03;;
12896;SDS011;6516;35.028;32.372;2022-12-29T02:45:51;6.68;;;3.20;;
12896;SDS011;6516;35.028;32.372;2022-12-29T02:48:27;6.10;;;2.97;;
12896;SDS011;6516;35.028;32.372;2022-12-29T02:51:03;6.85;;;2.92;;
12896;SDS011;6516;35.028;32.372;2022-12-29T02:53:35;5.65;;;3.30;;
12896;SDS011;6516;35.028;32.372;2022-12-29T02:56:20;5.78;;;2.85;;
12896;SDS011;6516;35.028;32.372;2022-12-29T02:58:48;6.65;;;3.30;;
12896;SDS011;6516;35.028;32.372;2022-12-29T03:01:20;6.63;;;3.10;;
12896;SDS011;6516;35.028;32.372;2022-12-29T03:04:06;7.03;;;3.30;;
12896;SDS011;6516;35.028;32.372;2022-12-29T03:06:51;5.15;;;2.80;;
12896;SDS011;6516;35.028;32.372;2022-12-29T03:09:26;5.28;;;2.90;;
12896;SDS011;6516;35.028;32.372;2022-12-29T03:12:07;6.72;;;3.58;;
12896;SDS011;6516;35.028;32.372;2022-12-29T03:14:48;5.20;;;3.00;;
12896;SDS011;6516;35.028;32.372;2022-12-29T03:17:46;5.55;;;2.97;;
12896;SDS011;6516;35.028;32.372;2022-12-29T03:20:23;7.15;;;2.90;;
12896;SDS011;6516;35.028;32.372;2022-12-29T03:22:58;5.32;;;2.90;;
12896;SDS011;6516;35.028;32.372;2022-12-29T03:25:30;13.35;;;3.35;;
12896;SDS011;6516;35.028;32.372;2022-12-29T03:28:00;6.57;;;3.07;;
12896;SDS011;6516;35.028;32.372;2022-12-29T03:30:32;6.22;;;3.10;;
12896;SDS011;6516;35.028;32.372;2022-12-29T03:33:04;5.60;;;3.25;;
12896;SDS011;6516;35.028;32.372;2022-12-29T03:35:38;6.28;;;3.00;;
12896;SDS011;6516;35.028;32.372;2022-12-29T03:38:10;6.10;;;3.30;;
12896;SDS011;6516;35.028;32.372;2022-12-29T03:40:42;5.40;;;3.00;;
12896;SDS011;6516;35.028;32.372;2022-12-29T03:43:13;5.60;;;3.13;;
12896;SDS011;6516;35.028;32.372;2022-12-29T03:45:42;8.85;;;3.25;;
12896;SDS011;6516;35.028;32.372;2022-12-29T03:48:10;5.22;;;2.85;;
12896;SDS011;6516;35.028;32.372;2022-12-29T03:50:39;6.85;;;3.05;;
12896;SDS011;6516;35.028;32.372;2022-12-29T03:53:06;6.57;;;3.00;;
12896;SDS011;6516;35.028;32.372;2022-12-29T03:55:34;6.45;;;3.00;;
12896;SDS011;6516;35.028;32.372;2022-12-29T03:58:02;5.60;;;3.00;;
12896;SDS011;6516;35.028;32.372;2022-12-29T04:00:30;5.78;;;2.80;;
12896;SDS011;6516;35.028;32.372;2022-12-29T04:02:57;5.47;;;2.95;;
12896;SDS011;6516;35.028;32.372;2022-12-29T04:05:25;7.50;;;3.10;;
12896;SDS011;6516;35.028;32.372;2022-12-29T04:07:55;6.65;;;3.22;;
12896;SDS011;6516;35.028;32.372;2022-12-29T04:10:22;6.07;;;3.10;;
12896;SDS011;6516;35.028;32.372;2022-12-29T04:12:50;5.47;;;3.00;;
12896;SDS011;6516;35.028;32.372;2022-12-29T04:15:18;6.80;;;3.15;;
12896;SDS011;6516;35.028;32.372;2022-12-29T04:17:46;6.83;;;2.60;;
12896;SDS011;6516;35.028;32.372;2022-12-29T04:20:13;5.85;;;2.90;;
12896;SDS011;6516;35.028;32.372;2022-12-29T04:23:00;6.47;;;3.08;;
12896;SDS011;6516;35.028;32.372;2022-12-29T04:25:30;6.28;;;3.17;;
12896;SDS011;6516;35.028;32.372;2022-12-29T04:27:58;6.45;;;3.05;;
12896;SDS011;6516;35.028;32.372;2022-12-29T04:30:26;6.23;;;3.10;;
12896;SDS011;6516;35.028;32.372;2022-12-29T04:32:53;5.70;;;2.88;;
12896;SDS011;6516;35.028;32.372;2022-12-29T04:35:22;6.78;;;3.25;;
12896;SDS011;6516;35.028;32.372;2022-12-29T04:37:49;6.28;;;2.80;;
12896;SDS011;6516;35.028;32.372;2022-12-29T04:40:19;6.75;;;3.00;;
12896;SDS011;6516;35.028;32.372;2022-12-29T04:42:46;6.20;;;3.17;;
12896;SDS011;6516;35.028;32.372;2022-12-29T04:45:14;7.05;;;3.58;;
12896;SDS011;6516;35.028;32.372;2022-12-29T04:47:42;5.80;;;3.20;;
12896;SDS011;6516;35.028;32.372;2022-12-29T04:50:10;6.90;;;2.97;;
12896;SDS011;6516;35.028;32.372;2022-12-29T04:52:38;7.25;;;2.80;;
12896;SDS011;6516;35.028;32.372;2022-12-29T04:55:07;5.80;;;3.20;;
12896;SDS011;6516;35.028;32.372;2022-12-29T04:57:36;6.30;;;3.30;;
12896;SDS011;6516;35.028;32.372;2022-12-29T05:00:04;7.60;;;3.42;;
12896;SDS011;6516;35.028;32.372;2022-12-29T05:02:35;6.03;;;3.20;;
12896;SDS011;6516;35.028;32.372;2022-12-29T05:05:03;6.20;;;3.13;;
12896;SDS011;6516;35.028;32.372;2022-12-29T05:07:32;6.00;;;3.10;;
12896;SDS011;6516;35.028;32.372;2022-12-29T05:10:02;6.97;;;3.10;;
12896;SDS011;6516;35.028;32.372;2022-12-29T05:12:31;5.28;;;3.00;;
12896;SDS011;6516;35.028;32.372;2022-12-29T05:15:02;7.40;;;3.53;;
12896;SDS011;6516;35.028;32.372;2022-12-29T05:17:31;6.72;;;3.30;;
12896;SDS011;6516;35.028;32.372;2022-12-29T05:19:59;6.60;;;3.10;;
12896;SDS011;6516;35.028;32.372;2022-12-29T05:22:27;5.60;;;3.22;;
12896;SDS011;6516;35.028;32.372;2022-12-29T05:24:55;5.32;;;2.65;;
12896;SDS011;6516;35.028;32.372;2022-12-29T05:27:22;6.45;;;3.55;;
12896;SDS011;6516;35.028;32.372;2022-12-29T05:29:50;6.85;;;3.28;;
12896;SDS011;6516;35.028;32.372;2022-12-29T05:32:19;6.60;;;3.17;;
12896;SDS011;6516;35.028;32.372;2022-12-29T05:34:47;7.32;;;3.00;;
12896;SDS011;6516;35.028;32.372;2022-12-29T05:37:15;5.70;;;3.22;;
12896;SDS011;6516;35.028;32.372;2022-12-29T05:39:43;8.02;;;2.90;;
12896;SDS011;6516;35.028;32.372;2022-12-29T05:42:11;6.00;;;2.90;;
12896;SDS011;6516;35.028;32.372;2022-12-29T05:44:38;5.43;;;2.70;;
12896;SDS011;6516;35.028;32.372;2022-12-29T05:47:06;6.22;;;2.90;;
12896;SDS011;6516;35.028;32.372;2022-12-29T05:49:35;6.38;;;2.90;;
12896;SDS011;6516;35.028;32.372;2022-12-29T05:52:03;5.78;;;2.90;;
12896;SDS011;6516;35.028;32.372;2022-12-29T05:54:31;6.55;;;3.10;;
12896;SDS011;6516;35.028;32.372;2022-12-29T05:56:59;6.20;;;3.10;;
12896;SDS011;6516;35.028;32.372;2022-12-29T05:59:27;6.38;;;2.83;;
12896;SDS011;6516;35.028;32.372;2022-12-29T06:01:54;6.07;;;2.90;;
12896;SDS011;6516;35.028;32.372;2022-12-29T06:04:22;6.55;;;2.70;;
12896;SDS011;6516;35.028;32.372;2022-12-29T06:06:51;5.47;;;2.78;;
12896;SDS011;6516;35.028;32.372;2022-12-29T06:09:19;5.33;;;2.80;;
12896;SDS011;6516;35.028;32.372;2022-12-29T06:11:47;6.00;;;2.88;;
12896;SDS011;6516;35.028;32.372;2022-12-29T06:14:15;5.75;;;2.80;;
12896;SDS011;6516;35.028;32.372;2022-12-29T06:16:43;7.40;;;2.83;;
12896;SDS011;6516;35.028;32.372;2022-12-29T06:19:10;6.75;;;2.60;;
12896;SDS011;6516;35.028;32.372;2022-12-29T06:21:38;4.80;;;2.40;;
12896;SDS011;6516;35.028;32.372;2022-12-29T06:24:07;5.00;;;2.38;;
12896;SDS011;6516;35.028;32.372;2022-12-29T06:26:36;4.88;;;2.60;;
12896;SDS011;6516;35.028;32.372;2022-12-29T06:29:05;4.90;;;2.47;;
12896;SDS011;6516;35.028;32.372;2022-12-29T06:31:34;4.72;;;2.65;;
12896;SDS011;6516;35.028;32.372;2022-12-29T06:34:02;4.97;;;2.13;;
12896;SDS011;6516;35.028;32.372;2022-12-29T06:36:33;7.20;;;2.30;;
12896;SDS011;6516;35.028;32.372;2022-12-29T06:39:00;6.80;;;2.70;;
12896;SDS011;6516;35.028;32.372;2022-12-29T06:41:30;5.43;;;2.20;;
12896;SDS011;6516;35.028;32.372;2022-12-29T06:43:58;4.00;;;2.20;;
12896;SDS011;6516;35.028;32.372;2022-12-29T06:46:25;4.87;;;2.13;;
12896;SDS011;6516;35.028;32.372;2022-12-29T06:48:53;3.90;;;1.90;;
12896;SDS011;6516;35.028;32.372;2022-12-29T06:51:21;4.28;;;1.95;;
12896;SDS011;6516;35.028;32.372;2022-12-29T06:53:49;5.28;;;2.20;;
12896;SDS011;6516;35.028;32.372;2022-12-29T06:56:19;5.72;;;2.20;;
12896;SDS011;6516;35.028;32.372;2022-12-29T06:58:48;4.67;;;1.90;;
12896;SDS011;6516;35.028;32.372;2022-12-29T07:01:16;4.20;;;2.03;;
12896;SDS011;6516;35.028;32.372;2022-12-29T07:03:44;3.60;;;1.90;;
12896;SDS011;6516;35.028;32.372;2022-12-29T07:06:12;4.18;;;1.80;;
12896;SDS011;6516;35.028;32.372;2022-12-29T07:08:40;4.50;;;1.95;;
12896;SDS011;6516;35.028;32.372;2022-12-29T07:11:07;4.20;;;2.07;;
12896;SDS011;6516;35.028;32.372;2022-12-29T07:13:35;4.60;;;2.20;;
12896;SDS011;6516;35.028;32.372;2022-12-29T07:16:08;5.80;;;2.35;;
12896;SDS011;6516;35.028;32.372;2022-12-29T07:18:37;4.82;;;2.30;;
12896;SDS011;6516;35.028;32.372;2022-12-29T07:21:05;5.80;;;2.08;;
12896;SDS011;6516;35.028;32.372;2022-12-29T07:23:33;4.57;;;2.10;;
12896;SDS011;6516;35.028;32.372;2022-12-29T07:26:01;4.72;;;2.08;;
12896;SDS011;6516;35.028;32.372;2022-12-29T07:28:29;5.40;;;2.70;;
12896;SDS011;6516;35.028;32.372;2022-12-29T07:30:57;5.35;;;2.40;;
12896;SDS011;6516;35.028;32.372;2022-12-29T07:33:29;4.15;;;2.00;;
12896;SDS011;6516;35.028;32.372;2022-12-29T07:35:57;4.40;;;1.50;;
12896;SDS011;6516;35.028;32.372;2022-12-29T07:38:26;4.03;;;1.90;;
12896;SDS011;6516;35.028;32.372;2022-12-29T07:40:56;4.72;;;2.10;;
12896;SDS011;6516;35.028;32.372;2022-12-29T07:43:24;5.63;;;2.10;;
12896;SDS011;6516;35.028;32.372;2022-12-29T07:45:52;4.78;;;2.38;;
12896;SDS011;6516;35.028;32.372;2022-12-29T07:48:20;5.17;;;2.20;;
12896;SDS011;6516;35.028;32.372;2022-12-29T07:50:50;5.95;;;1.95;;
12896;SDS011;6516;35.028;32.372;2022-12-29T07:53:19;4.75;;;1.92;;
12896;SDS011;6516;35.028;32.372;2022-12-29T07:55:46;5.05;;;1.90;;
12896;SDS011;6516;35.028;32.372;2022-12-29T07:58:14;4.15;;;1.90;;
12896;SDS011;6516;35.028;32.372;2022-12-29T08:00:42;4.60;;;2.00;;
12896;SDS011;6516;35.028;32.372;2022-12-29T08:03:09;3.78;;;1.85;;
12896;SDS011;6516;35.028;32.372;2022-12-29T08:05:37;3.70;;;1.77;;
12896;SDS011;6516;35.028;32.372;2022-12-29T08:08:07;4.32;;;1.80;;
12896;SDS011;6516;35.028;32.372;2022-12-29T08:10:34;4.97;;;1.90;;
12896;SDS011;6516;35.028;32.372;2022-12-29T08:13:02;4.60;;;2.00;;
12896;SDS011;6516;35.028;32.372;2022-12-29T08:15:30;4.30;;;1.95;;
12896;SDS011;6516;35.028;32.372;2022-12-29T08:17:58;4.85;;;2.10;;
12896;SDS011;6516;35.028;32.372;2022-12-29T08:20:27;5.35;;;2.05;;
12896;SDS011;6516;35.028;32.372;2022-12-29T08:22:54;5.03;;;2.28;;
12896;SDS011;6516;35.028;32.372;2022-12-29T08:25:23;6.13;;;2.30;;
12896;SDS011;6516;35.028;32.372;2022-12-29T08:27:51;4.93;;;2.10;;
12896;SDS011;6516;35.028;32.372;2022-12-29T08:30:19;4.45;;;2.15;;
12896;SDS011;6516;35.028;32.372;2022-12-29T08:32:47;4.57;;;2.30;;
12896;SDS011;6516;35.028;32.372;2022-12-29T08:35:14;4.70;;;1.90;;
12896;SDS011;6516;35.028;32.372;2022-12-29T08:37:42;3.80;;;1.90;;
12896;SDS011;6516;35.028;32.372;2022-12-29T08:40:10;4.57;;;2.22;;
12896;SDS011;6516;35.028;32.372;2022-12-29T08:42:40;5.57;;;1.90;;
12896;SDS011;6516;35.028;32.372;2022-12-29T08:45:08;3.95;;;1.98;;
12896;SDS011;6516;35.028;32.372;2022-12-29T08:47:37;4.00;;;2.10;;
12896;SDS011;6516;35.028;32.372;2022-12-29T08:50:05;6.10;;;2.20;;
12896;SDS011;6516;35.028;32.372;2022-12-29T08:52:33;5.20;;;2.10;;
12896;SDS011;6516;35.028;32.372;2022-12-29T08:55:02;4.30;;;2.10;;
12896;SDS011;6516;35.028;32.372;2022-12-29T08:57:30;5.28;;;2.40;;
12896;SDS011;6516;35.028;32.372;2022-12-29T08:59:59;4.85;;;2.13;;
12896;SDS011;6516;35.028;32.372;2022-12-29T09:02:27;4.80;;;2.00;;
12896;SDS011;6516;35.028;32.372;2022-12-29T09:04:55;5.05;;;2.20;;
12896;SDS011;6516;35.028;32.372;2022-12-29T09:07:24;4.20;;;1.88;;
12896;SDS011;6516;35.028;32.372;2022-12-29T09:09:52;4.95;;;2.00;;
12896;SDS011;6516;35.028;32.372;2022-12-29T09:12:19;4.53;;;1.95;;
12896;SDS011;6516;35.028;32.372;2022-12-29T09:14:47;5.03;;;2.33;;
12896;SDS011;6516;35.028;32.372;2022-12-29T09:17:17;4.38;;;2.10;;
12896;SDS011;6516;35.028;32.372;2022-12-29T09:20:03;4.55;;;2.20;;
12896;SDS011;6516;35.028;32.372;2022-12-29T09:22:31;4.13;;;2.17;;
12896;SDS011;6516;35.028;32.372;2022-12-29T09:24:59;4.68;;;2.05;;
12896;SDS011;6516;35.028;32.372;2022-12-29T09:27:27;4.83;;;2.00;;
12896;SDS011;6516;35.028;32.372;2022-12-29T09:29:55;4.10;;;1.83;;
12896;SDS011;6516;35.028;32.372;2022-12-29T09:32:25;5.18;;;1.98;;
12896;SDS011;6516;35.028;32.372;2022-12-29T09:34:53;4.63;;;2.10;;
12896;SDS011;6516;35.028;32.372;2022-12-29T09:37:21;4.28;;;1.95;;
12896;SDS011;6516;35.028;32.372;2022-12-29T09:39:48;5.73;;;2.10;;
12896;SDS011;6516;35.028;32.372;2022-12-29T09:42:18;6.05;;;2.40;;
12896;SDS011;6516;35.028;32.372;2022-12-29T09:45:00;4.82;;;2.00;;
12896;SDS011;6516;35.028;32.372;2022-12-29T09:47:38;6.38;;;3.85;;
12896;SDS011;6516;35.028;32.372;2022-12-29T09:50:09;9.05;;;6.07;;
12896;SDS011;6516;35.028;32.372;2022-12-29T09:52:47;7.83;;;4.67;;
12896;SDS011;6516;35.028;32.372;2022-12-29T09:55:20;5.53;;;2.65;;
12896;SDS011;6516;35.028;32.372;2022-12-29T09:57:53;5.47;;;2.83;;
12896;SDS011;6516;35.028;32.372;2022-12-29T10:00:27;4.35;;;2.15;;
12896;SDS011;6516;35.028;32.372;2022-12-29T10:03:09;4.00;;;2.00;;
12896;SDS011;6516;35.028;32.372;2022-12-29T10:05:45;6.30;;;2.23;;
12896;SDS011;6516;35.028;32.372;2022-12-29T10:08:24;6.25;;;2.95;;
12896;SDS011;6516;35.028;32.372;2022-12-29T10:11:02;5.22;;;2.00;;
12896;SDS011;6516;35.028;32.372;2022-12-29T10:13:43;4.10;;;2.05;;
12896;SDS011;6516;35.028;32.372;2022-12-29T10:16:35;3.95;;;2.15;;
12896;SDS011;6516;35.028;32.372;2022-12-29T10:19:16;4.97;;;2.00;;
12896;SDS011;6516;35.028;32.372;2022-12-29T10:22:02;4.57;;;2.17;;
12896;SDS011;6516;35.028;32.372;2022-12-29T10:24:40;4.78;;;2.10;;
12896;SDS011;6516;35.028;32.372;2022-12-29T10:27:12;4.15;;;2.10;;
12896;SDS011;6516;35.028;32.372;2022-12-29T10:29:41;5.30;;;2.58;;
12896;SDS011;6516;35.028;32.372;2022-12-29T10:32:21;4.37;;;2.37;;
12896;SDS011;6516;35.028;32.372;2022-12-29T10:35:00;5.32;;;2.40;;
12896;SDS011;6516;35.028;32.372;2022-12-29T10:37:38;4.18;;;2.03;;
12896;SDS011;6516;35.028;32.372;2022-12-29T10:40:22;4.57;;;2.33;;
12896;SDS011;6516;35.028;32.372;2022-12-29T10:42:55;5.65;;;2.25;;
12896;SDS011;6516;35.028;32.372;2022-12-29T10:45:27;5.57;;;2.30;;
12896;SDS011;6516;35.028;32.372;2022-12-29T10:48:00;4.20;;;2.17;;
12896;SDS011;6516;35.028;32.372;2022-12-29T10:50:32;4.78;;;2.00;;
12896;SDS011;6516;35.028;32.372;2022-12-29T10:53:02;4.63;;;1.67;;
12896;SDS011;6516;35.028;32.372;2022-12-29T10:55:32;3.92;;;1.70;;
12896;SDS011;6516;35.028;32.372;2022-12-29T10:58:03;4.53;;;2.10;;
12896;SDS011;6516;35.028;32.372;2022-12-29T11:00:38;4.00;;;1.98;;
12896;SDS011;6516;35.028;32.372;2022-12-29T11:03:17;4.82;;;2.13;;
12896;SDS011;6516;35.028;32.372;2022-12-29T11:06:23;4.38;;;1.60;;
12896;SDS011;6516;35.028;32.372;2022-12-29T11:08:55;4.47;;;1.90;;
12896;SDS011;6516;35.028;32.372;2022-12-29T11:11:26;4.47;;;1.90;;
12896;SDS011;6516;35.028;32.372;2022-12-29T11:14:02;4.28;;;1.80;;
12896;SDS011;6516;35.028;32.372;2022-12-29T11:16:39;3.83;;;1.90;;
12896;SDS011;6516;35.028;32.372;2022-12-29T11:19:19;4.55;;;2.00;;
12896;SDS011;6516;35.028;32.372;2022-12-29T11:21:50;4.28;;;1.88;;
12896;SDS011;6516;35.028;32.372;2022-12-29T11:24:20;5.13;;;1.90;;
12896;SDS011;6516;35.028;32.372;2022-12-29T11:26:53;6.72;;;1.58;;
12896;SDS011;6516;35.028;32.372;2022-12-29T11:29:27;4.25;;;1.90;;
12896;SDS011;6516;35.028;32.372;2022-12-29T11:31:56;3.90;;;1.70;;
12896;SDS011;6516;35.028;32.372;2022-12-29T11:34:26;3.80;;;1.85;;
12896;SDS011;6516;35.028;32.372;2022-12-29T11:37:00;5.50;;;1.90;;
12896;SDS011;6516;35.028;32.372;2022-12-29T11:39:36;5.07;;;2.10;;
12896;SDS011;6516;35.028;32.372;2022-12-29T11:42:12;4.00;;;1.90;;
12896;SDS011;6516;35.028;32.372;2022-12-29T11:44:44;3.92;;;1.70;;
12896;SDS011;6516;35.028;32.372;2022-12-29T11:47:20;4.57;;;1.90;;
12896;SDS011;6516;35.028;32.372;2022-12-29T11:49:54;4.27;;;1.90;;
12896;SDS011;6516;35.028;32.372;2022-12-29T11:52:28;5.25;;;1.95;;
12896;SDS011;6516;35.028;32.372;2022-12-29T11:55:00;4.85;;;1.85;;
12896;SDS011;6516;35.028;32.372;2022-12-29T11:57:30;3.85;;;1.92;;
12896;SDS011;6516;35.028;32.372;2022-12-29T12:00:03;3.88;;;1.90;;
12896;SDS011;6516;35.028;32.372;2022-12-29T12:02:45;4.33;;;2.00;;
12896;SDS011;6516;35.028;32.372;2022-12-29T12:05:25;3.67;;;1.80;;
12896;SDS011;6516;35.028;32.372;2022-12-29T12:08:07;4.63;;;2.00;;
12896;SDS011;6516;35.028;32.372;2022-12-29T12:10:40;4.35;;;1.77;;
12896;SDS011;6516;35.028;32.372;2022-12-29T12:13:20;4.78;;;1.90;;
12896;SDS011;6516;35.028;32.372;2022-12-29T12:15:55;4.23;;;1.70;;
12896;SDS011;6516;35.028;32.372;2022-12-29T12:21:14;3.70;;;1.80;;
12896;SDS011;6516;35.028;32.372;2022-12-29T12:23:56;6.97;;;1.98;;
12896;SDS011;6516;35.028;32.372;2022-12-29T12:26:42;5.43;;;2.58;;
12896;SDS011;6516;35.028;32.372;2022-12-29T12:29:24;4.80;;;2.60;;
12896;SDS011;6516;35.028;32.372;2022-12-29T12:31:59;6.40;;;3.05;;
12896;SDS011;6516;35.028;32.372;2022-12-29T12:34:36;7.90;;;2.92;;
12896;SDS011;6516;35.028;32.372;2022-12-29T12:37:13;5.53;;;3.20;;
12896;SDS011;6516;35.028;32.372;2022-12-29T12:40:11;6.30;;;3.45;;
12896;SDS011;6516;35.028;32.372;2022-12-29T12:43:04;7.40;;;3.20;;
12896;SDS011;6516;35.028;32.372;2022-12-29T12:45:52;4.78;;;2.60;;
12896;SDS011;6516;35.028;32.372;2022-12-29T12:51:48;5.53;;;2.95;;
12896;SDS011;6516;35.028;32.372;2022-12-29T12:54:29;6.72;;;3.10;;
12896;SDS011;6516;35.028;32.372;2022-12-29T12:57:16;5.90;;;3.13;;
12896;SDS011;6516;35.028;32.372;2022-12-29T12:59:56;5.78;;;2.90;;
12896;SDS011;6516;35.028;32.372;2022-12-29T13:02:38;5.90;;;3.00;;
12896;SDS011;6516;35.028;32.372;2022-12-29T13:05:20;7.18;;;3.20;;
12896;SDS011;6516;35.028;32.372;2022-12-29T13:08:17;5.40;;;2.90;;
12896;SDS011;6516;35.028;32.372;2022-12-29T13:11:07;6.93;;;3.00;;
12896;SDS011;6516;35.028;32.372;2022-12-29T13:13:54;5.85;;;3.05;;
12896;SDS011;6516;35.028;32.372;2022-12-29T13:16:41;5.18;;;2.90;;
12896;SDS011;6516;35.028;32.372;2022-12-29T13:19:16;6.40;;;3.30;;
12896;SDS011;6516;35.028;32.372;2022-12-29T13:21:55;5.93;;;3.08;;
12896;SDS011;6516;35.028;32.372;2022-12-29T13:24:36;5.43;;;2.90;;
12896;SDS011;6516;35.028;32.372;2022-12-29T13:27:18;6.13;;;3.05;;
12896;SDS011;6516;35.028;32.372;2022-12-29T13:29:57;6.25;;;3.20;;
12896;SDS011;6516;35.028;32.372;2022-12-29T13:32:34;5.22;;;3.05;;
12896;SDS011;6516;35.028;32.372;2022-12-29T13:35:23;5.82;;;3.30;;
12896;SDS011;6516;35.028;32.372;2022-12-29T13:38:10;5.70;;;3.27;;
12896;SDS011;6516;35.028;32.372;2022-12-29T13:40:46;6.55;;;3.67;;
12896;SDS011;6516;35.028;32.372;2022-12-29T13:43:20;6.65;;;3.63;;
12896;SDS011;6516;35.028;32.372;2022-12-29T13:45:59;7.35;;;3.70;;
12896;SDS011;6516;35.028;32.372;2022-12-29T13:48:37;7.60;;;3.75;;
12896;SDS011;6516;35.028;32.372;2022-12-29T13:51:11;6.20;;;3.47;;
12896;SDS011;6516;35.028;32.372;2022-12-29T13:53:54;6.03;;;3.60;;
12896;SDS011;6516;35.028;32.372;2022-12-29T13:56:31;7.82;;;3.70;;
12896;SDS011;6516;35.028;32.372;2022-12-29T13:59:08;5.93;;;3.47;;
12896;SDS011;6516;35.028;32.372;2022-12-29T14:01:49;6.40;;;3.60;;
12896;SDS011;6516;35.028;32.372;2022-12-29T14:04:23;5.60;;;3.50;;
12896;SDS011;6516;35.028;32.372;2022-12-29T14:06:59;6.22;;;3.38;;
12896;SDS011;6516;35.028;32.372;2022-12-29T14:09:35;5.93;;;3.75;;
12896;SDS011;6516;35.028;32.372;2022-12-29T14:12:19;6.38;;;3.70;;
12896;SDS011;6516;35.028;32.372;2022-12-29T14:15:13;6.32;;;3.90;;
12896;SDS011;6516;35.028;32.372;2022-12-29T14:18:01;7.23;;;4.00;;
12896;SDS011;6516;35.028;32.372;2022-12-29T14:20:38;6.43;;;3.92;;
12896;SDS011;6516;35.028;32.372;2022-12-29T14:23:16;7.38;;;3.72;;
12896;SDS011;6516;35.028;32.372;2022-12-29T14:25:56;6.80;;;3.60;;
12896;SDS011;6516;35.028;32.372;2022-12-29T14:28:27;5.65;;;2.92;;
12896;SDS011;6516;35.028;32.372;2022-12-29T14:30:57;5.80;;;2.87;;
12896;SDS011;6516;35.028;32.372;2022-12-29T14:33:29;5.90;;;3.10;;
12896;SDS011;6516;35.028;32.372;2022-12-29T14:39:00;5.57;;;2.45;;
12896;SDS011;6516;35.028;32.372;2022-12-29T14:41:29;5.93;;;2.90;;
12896;SDS011;6516;35.028;32.372;2022-12-29T14:44:01;4.27;;;2.40;;
12896;SDS011;6516;35.028;32.372;2022-12-29T14:46:44;4.40;;;2.22;;
12896;SDS011;6516;35.028;32.372;2022-12-29T14:49:25;5.30;;;2.60;;
12896;SDS011;6516;35.028;32.372;2022-12-29T14:52:04;5.22;;;2.50;;
12896;SDS011;6516;35.028;32.372;2022-12-29T14:54:52;6.30;;;2.67;;
12896;SDS011;6516;35.028;32.372;2022-12-29T14:57:24;5.63;;;2.80;;
12896;SDS011;6516;35.028;32.372;2022-12-29T14:59:59;6.03;;;2.50;;
12896;SDS011;6516;35.028;32.372;2022-12-29T15:02:36;4.97;;;2.72;;
12896;SDS011;6516;35.028;32.372;2022-12-29T15:05:26;4.47;;;2.45;;
12896;SDS011;6516;35.028;32.372;2022-12-29T15:07:59;5.72;;;2.25;;
12896;SDS011;6516;35.028;32.372;2022-12-29T15:10:32;5.53;;;2.87;;
12896;SDS011;6516;35.028;32.372;2022-12-29T15:13:10;6.40;;;3.00;;
12896;SDS011;6516;35.028;32.372;2022-12-29T15:15:44;6.30;;;2.90;;
12896;SDS011;6516;35.028;32.372;2022-12-29T15:18:13;5.57;;;2.63;;
12896;SDS011;6516;35.028;32.372;2022-12-29T15:20:52;5.55;;;2.67;;
12896;SDS011;6516;35.028;32.372;2022-12-29T15:23:24;4.80;;;2.70;;
12896;SDS011;6516;35.028;32.372;2022-12-29T15:25:54;4.85;;;2.60;;
12896;SDS011;6516;35.028;32.372;2022-12-29T15:28:24;5.63;;;2.50;;
12896;SDS011;6516;35.028;32.372;2022-12-29T15:30:54;5.32;;;2.50;;
12896;SDS011;6516;35.028;32.372;2022-12-29T15:33:25;4.88;;;2.50;;
12896;SDS011;6516;35.028;32.372;2022-12-29T15:35:56;6.03;;;2.40;;